createdAt,value
2017-11-22T00:01:15.992Z,100394.42
2017-11-22T00:03:42.287Z,100395.30
2017-11-22T00:06:11.437Z,100392.52
2017-11-22T00:08:38.228Z,100383.66
2017-11-22T00:11:06.300Z,100378.78
2017-11-22T00:13:32.746Z,100374.02
2017-11-22T00:16:00.680Z,100372.77
2017-11-22T00:18:28.180Z,100370.55
2017-11-22T00:20:54.441Z,100374.02
2017-11-22T00:23:20.669Z,100376.17
2017-11-22T00:25:46.957Z,100366.20
2017-11-22T00:28:13.431Z,100371.84
2017-11-22T00:30:39.677Z,100366.54
2017-11-22T00:33:05.971Z,100366.05
2017-11-22T00:35:32.175Z,100369.22
2017-11-22T00:37:58.408Z,100371.89
2017-11-22T00:40:24.793Z,100375.40
2017-11-22T00:42:51.009Z,100378.95
2017-11-22T00:45:17.229Z,100368.09
2017-11-22T00:47:43.492Z,100369.85
2017-11-22T00:50:09.737Z,100368.97
2017-11-22T00:52:36.165Z,100380.80
2017-11-22T00:55:02.498Z,100373.84
2017-11-22T00:57:28.688Z,100369.52
2017-11-22T00:59:54.893Z,100366.09
2017-11-22T01:02:21.382Z,100364.30
2017-11-22T01:04:47.823Z,100363.88
2017-11-22T01:07:14.038Z,100366.14
2017-11-22T01:09:40.292Z,100368.30
2017-11-22T01:12:06.501Z,100355.16
2017-11-22T01:14:32.702Z,100355.58
2017-11-22T01:16:58.994Z,100356.07
2017-11-22T01:19:25.202Z,100359.68
2017-11-22T01:21:51.400Z,100358.36
2017-11-22T01:24:17.642Z,100349.50
2017-11-22T01:26:43.832Z,100349.02
2017-11-22T01:29:10.034Z,100345.07
2017-11-22T01:31:36.566Z,100344.24
2017-11-22T01:34:02.753Z,100341.14
2017-11-22T01:36:28.962Z,100349.02
2017-11-22T01:38:55.233Z,100340.22
2017-11-22T01:41:21.443Z,100337.20
2017-11-22T01:43:47.633Z,100331.11
2017-11-22T01:46:13.937Z,100333.34
2017-11-22T01:48:40.469Z,100336.63
2017-11-22T01:51:06.666Z,100333.61
2017-11-22T01:53:33.003Z,100335.41
2017-11-22T01:55:59.299Z,100337.16
2017-11-22T01:58:25.500Z,100338.53
2017-11-22T02:00:52.837Z,100332.48
2017-11-22T02:03:19.274Z,100327.77
2017-11-22T02:05:45.480Z,100318.47
2017-11-22T02:08:11.954Z,100313.17
2017-11-22T02:10:38.160Z,100310.50
2017-11-22T02:13:04.350Z,100310.94
2017-11-22T02:15:30.614Z,100299.50
2017-11-22T02:17:56.797Z,100309.62
2017-11-22T02:20:22.982Z,100299.59
2017-11-22T02:22:49.478Z,100297.36
2017-11-22T02:25:15.662Z,100290.78
2017-11-22T02:27:41.864Z,100288.21
2017-11-22T02:30:08.458Z,100283.78
2017-11-22T02:32:34.665Z,100281.59
2017-11-22T02:35:00.865Z,100284.23
2017-11-22T02:37:27.203Z,100280.87
2017-11-22T02:39:53.421Z,100286.17
2017-11-22T02:42:19.869Z,100286.56
2017-11-22T02:44:46.142Z,100279.17
2017-11-22T02:47:12.326Z,100270.89
2017-11-22T02:49:38.526Z,100271.81
2017-11-22T02:52:04.861Z,100274.05
2017-11-22T02:54:31.076Z,100285.45
2017-11-22T02:56:57.283Z,100277.45
2017-11-22T02:59:23.537Z,100270.55
2017-11-22T03:01:49.853Z,100261.08
2017-11-22T03:04:16.050Z,100256.30
2017-11-22T03:06:43.232Z,100256.83
2017-11-22T03:09:09.667Z,100260.83
2017-11-22T03:11:35.865Z,100257.71
2017-11-22T03:14:02.215Z,100259.80
2017-11-22T03:16:28.637Z,100258.98
2017-11-22T03:18:54.824Z,100256.89
2017-11-22T03:21:21.161Z,100253.83
2017-11-22T03:23:47.365Z,100248.52
2017-11-22T03:26:13.555Z,100251.14
2017-11-22T03:28:39.810Z,100243.70
2017-11-22T03:31:05.997Z,100247.06
2017-11-22T03:33:32.219Z,100247.49
2017-11-22T03:35:58.573Z,100246.19
2017-11-22T03:38:24.852Z,100240.45
2017-11-22T03:40:51.063Z,100243.98
2017-11-22T03:43:17.559Z,100241.32
2017-11-22T03:45:44.013Z,100233.00
2017-11-22T03:48:15.148Z,100243.55
2017-11-22T03:50:47.456Z,100235.62
2017-11-22T03:53:19.694Z,100226.83
2017-11-22T03:55:45.897Z,100227.36
2017-11-22T03:58:17.061Z,100219.23
2017-11-22T04:00:43.332Z,100229.20
2017-11-22T04:03:09.603Z,100228.42
2017-11-22T04:05:37.608Z,100225.41
2017-11-22T04:08:03.808Z,100225.91
2017-11-22T04:10:30.013Z,100223.71
2017-11-22T04:12:56.278Z,100202.66
2017-11-22T04:15:22.469Z,100206.11
2017-11-22T04:17:48.662Z,100191.17
2017-11-22T04:20:21.063Z,100184.27
2017-11-22T04:22:47.264Z,100189.52
2017-11-22T04:25:13.470Z,100184.26
2017-11-22T04:27:39.731Z,100187.72
2017-11-22T04:30:05.919Z,100185.58
2017-11-22T04:32:32.107Z,100179.49
2017-11-22T04:34:58.610Z,100183.30
2017-11-22T04:37:24.822Z,100187.67
2017-11-22T04:39:51.008Z,100185.33
2017-11-22T04:42:17.254Z,100186.54
2017-11-22T04:44:43.439Z,100179.92
2017-11-22T04:47:09.885Z,100197.48
2017-11-22T04:49:36.218Z,100191.72
2017-11-22T04:52:02.657Z,100201.05
2017-11-22T04:54:34.777Z,100207.08
2017-11-22T04:57:01.118Z,100200.52
2017-11-22T04:59:27.313Z,100208.05
2017-11-22T05:01:53.517Z,100194.53
2017-11-22T05:04:19.878Z,100189.17
2017-11-22T05:06:46.074Z,100193.56
2017-11-22T05:09:12.262Z,100195.30
2017-11-22T05:11:38.587Z,100196.13
2017-11-22T05:14:04.781Z,100192.68
2017-11-22T05:16:30.964Z,100197.45
2017-11-22T05:18:57.276Z,100192.92
2017-11-22T05:21:23.469Z,100191.02
2017-11-22T05:23:49.914Z,100195.30
2017-11-22T05:26:16.279Z,100190.58
2017-11-22T05:28:42.708Z,100191.50
2017-11-22T05:31:08.915Z,100197.19
2017-11-22T05:33:35.191Z,100199.45
2017-11-22T05:36:01.384Z,100205.12
2017-11-22T05:38:27.577Z,100199.38
2017-11-22T05:40:53.813Z,100199.72
2017-11-22T05:43:20.008Z,100200.07
2017-11-22T05:45:47.163Z,100212.27
2017-11-22T05:48:14.109Z,100203.84
2017-11-22T05:50:41.390Z,100206.04
2017-11-22T05:53:07.663Z,100208.23
2017-11-22T05:55:33.925Z,100215.82
2017-11-22T05:58:00.125Z,100218.55
2017-11-22T06:00:26.824Z,100222.93
2017-11-22T06:02:53.085Z,100221.67
2017-11-22T06:05:19.583Z,100215.53
2017-11-22T06:07:45.787Z,100207.66
2017-11-22T06:10:12.125Z,100205.52
2017-11-22T06:12:38.318Z,100211.98
2017-11-22T06:15:04.506Z,100220.30
2017-11-22T06:17:30.764Z,100210.23
2017-11-22T06:19:56.977Z,100215.88
2017-11-22T06:22:23.187Z,100217.28
2017-11-22T06:24:49.462Z,100222.55
2017-11-22T06:27:15.670Z,100214.28
2017-11-22T06:29:48.920Z,100215.63
2017-11-22T06:32:15.124Z,100206.87
2017-11-22T06:34:41.323Z,100219.08
2017-11-22T06:37:07.571Z,100220.02
2017-11-22T06:39:33.994Z,100221.44
2017-11-22T06:42:00.249Z,100221.97
2017-11-22T06:44:26.746Z,100229.45
2017-11-22T06:46:52.930Z,100228.97
2017-11-22T06:49:19.134Z,100230.33
2017-11-22T06:51:45.460Z,100229.52
2017-11-22T06:54:11.681Z,100234.23
2017-11-22T06:56:37.888Z,100238.59
2017-11-22T06:59:04.256Z,100252.27
2017-11-22T07:01:30.481Z,100252.17
2017-11-22T07:03:56.765Z,100249.44
2017-11-22T07:06:23.124Z,100254.61
2017-11-22T07:08:49.329Z,100253.72
2017-11-22T07:11:15.518Z,100264.66
2017-11-22T07:13:41.904Z,100263.75
2017-11-22T07:16:08.127Z,100261.17
2017-11-22T07:18:34.338Z,100272.05
2017-11-22T07:21:00.686Z,100267.83
2017-11-22T07:23:26.891Z,100270.07
2017-11-22T07:25:53.406Z,100270.80
2017-11-22T07:28:19.648Z,100262.72
2017-11-22T07:30:45.851Z,100267.92
2017-11-22T07:33:12.068Z,100274.83
2017-11-22T07:35:44.598Z,100269.57
2017-11-22T07:38:11.055Z,100275.76
2017-11-22T07:40:37.270Z,100273.03
2017-11-22T07:43:03.529Z,100266.95
2017-11-22T07:45:29.747Z,100270.11
2017-11-22T07:48:01.957Z,100281.55
2017-11-22T07:50:28.233Z,100279.80
2017-11-22T07:52:54.568Z,100283.20
2017-11-22T07:55:20.807Z,100281.88
2017-11-22T07:57:49.024Z,100281.89
2017-11-22T08:00:15.241Z,100287.14
2017-11-22T08:02:42.426Z,100284.13
2017-11-22T08:05:08.682Z,100287.68
2017-11-22T08:07:35.127Z,100289.39
2017-11-22T08:10:01.335Z,100282.37
2017-11-22T08:12:27.916Z,100284.08
2017-11-22T08:14:54.110Z,100288.02
2017-11-22T08:17:20.331Z,100291.13
2017-11-22T08:19:46.574Z,100296.72
2017-11-22T08:22:12.777Z,100295.85
2017-11-22T08:24:38.986Z,100308.94
2017-11-22T08:27:05.478Z,100308.06
2017-11-22T08:29:31.926Z,100305.00
2017-11-22T08:31:58.134Z,100299.74
2017-11-22T08:34:24.358Z,100298.86
2017-11-22T08:36:50.666Z,100298.92
2017-11-22T08:39:16.868Z,100299.74
2017-11-22T08:41:43.063Z,100311.52
2017-11-22T08:44:09.391Z,100315.55
2017-11-22T08:46:35.596Z,100315.17
2017-11-22T08:49:01.833Z,100312.98
2017-11-22T08:51:28.093Z,100319.98
2017-11-22T08:53:54.316Z,100324.41
2017-11-22T08:56:20.532Z,100320.86
2017-11-22T08:58:46.789Z,100326.55
2017-11-22T09:01:13.411Z,100330.05
2017-11-22T09:03:44.714Z,100333.95
2017-11-22T09:06:17.131Z,100341.78
2017-11-22T09:08:43.407Z,100346.59
2017-11-22T09:11:09.612Z,100341.00
2017-11-22T09:13:35.858Z,100342.61
2017-11-22T09:16:02.050Z,100337.36
2017-11-22T09:18:31.221Z,100340.47
2017-11-22T09:20:57.474Z,100339.16
2017-11-22T09:23:23.689Z,100340.51
2017-11-22T09:25:50.136Z,100342.71
2017-11-22T09:28:16.408Z,100338.72
2017-11-22T09:30:48.576Z,100341.39
2017-11-22T09:33:17.082Z,100343.20
2017-11-22T09:35:43.302Z,100349.77
2017-11-22T09:38:09.501Z,100346.30
2017-11-22T09:40:35.850Z,100344.89
2017-11-22T09:43:02.106Z,100348.84
2017-11-22T09:45:28.561Z,100344.85
2017-11-22T09:47:54.804Z,100342.61
2017-11-22T09:50:21.017Z,100348.73
2017-11-22T09:52:47.208Z,100350.94
2017-11-22T09:55:13.815Z,100349.17
2017-11-22T09:57:40.010Z,100350.88
2017-11-22T10:00:06.300Z,100359.65
2017-11-22T10:02:32.587Z,100353.56
2017-11-22T10:04:58.822Z,100362.85
2017-11-22T10:07:25.033Z,100359.79
2017-11-22T10:09:51.375Z,100357.59
2017-11-22T10:12:17.572Z,100350.94
2017-11-22T10:14:43.778Z,100359.73
2017-11-22T10:17:12.191Z,100364.95
2017-11-22T10:19:43.137Z,100357.89
2017-11-22T10:22:09.387Z,100358.33
2017-11-22T10:24:43.614Z,100365.83
2017-11-22T10:27:15.913Z,100365.33
2017-11-22T10:29:46.074Z,100367.48
2017-11-22T10:32:18.421Z,100369.27
2017-11-22T10:34:44.623Z,100364.45
2017-11-22T10:37:10.887Z,100375.02
2017-11-22T10:39:37.096Z,100367.52
2017-11-22T10:42:03.348Z,100368.39
2017-11-22T10:44:29.599Z,100365.28
2017-11-22T10:46:55.854Z,100366.16
2017-11-22T10:49:22.135Z,100368.30
2017-11-22T10:51:48.350Z,100370.92
2017-11-22T10:54:14.584Z,100370.05
2017-11-22T10:56:40.850Z,100366.51
2017-11-22T10:59:07.088Z,100372.67
2017-11-22T11:01:33.394Z,100364.37
2017-11-22T11:03:59.962Z,100372.33
2017-11-22T11:06:26.187Z,100370.16
2017-11-22T11:08:52.452Z,100375.02
2017-11-22T11:11:18.791Z,100382.50
2017-11-22T11:13:45.007Z,100375.31
2017-11-22T11:16:11.237Z,100378.95
2017-11-22T11:18:37.741Z,100375.98
2017-11-22T11:21:04.203Z,100378.47
2017-11-22T11:23:30.450Z,100376.72
2017-11-22T11:25:56.789Z,100376.86
2017-11-22T11:28:22.997Z,100374.77
2017-11-22T11:30:49.204Z,100379.20
2017-11-22T11:33:15.724Z,100372.67
2017-11-22T11:35:54.345Z,100370.48
2017-11-22T11:38:20.808Z,100379.44
2017-11-22T11:40:47.036Z,100375.59
2017-11-22T11:43:13.237Z,100367.91
2017-11-22T11:45:39.826Z,100375.25
2017-11-22T11:48:06.082Z,100373.69
2017-11-22T11:50:32.295Z,100371.99
2017-11-22T11:52:58.552Z,100373.36
2017-11-22T11:55:24.992Z,100376.86
2017-11-22T11:57:51.198Z,100371.95
2017-11-22T12:00:17.587Z,100369.36
2017-11-22T12:02:43.798Z,100366.83
2017-11-22T12:05:10.035Z,100374.23
2017-11-22T12:07:36.282Z,100365.52
2017-11-22T12:10:02.498Z,100359.84
2017-11-22T12:12:28.698Z,100363.39
2017-11-22T12:14:55.064Z,100362.45
2017-11-22T12:17:21.268Z,100364.63
2017-11-22T12:19:47.706Z,100361.48
2017-11-22T12:22:14.254Z,100366.73
2017-11-22T12:24:40.451Z,100359.78
2017-11-22T12:27:06.657Z,100362.02
2017-11-22T12:29:32.916Z,100365.08
2017-11-22T12:31:59.116Z,100364.59
2017-11-22T12:34:25.428Z,100364.16
2017-11-22T12:36:51.766Z,100361.53
2017-11-22T12:39:18.231Z,100362.84
2017-11-22T12:41:44.671Z,100366.73
2017-11-22T12:44:10.947Z,100366.73
2017-11-22T12:46:37.141Z,100359.72
2017-11-22T12:49:03.569Z,100354.41
2017-11-22T12:51:29.917Z,100358.80
2017-11-22T12:53:56.357Z,100353.98
2017-11-22T12:56:22.555Z,100360.13
2017-11-22T12:58:48.887Z,100361.44
2017-11-22T13:01:15.121Z,100356.56
2017-11-22T13:03:41.354Z,100352.13
2017-11-22T13:06:07.644Z,100363.09
2017-11-22T13:08:34.001Z,100355.64
2017-11-22T13:11:00.232Z,100360.75
2017-11-22T13:13:26.665Z,100354.80
2017-11-22T13:18:25.931Z,100353.58
2017-11-22T13:20:52.275Z,100356.27
2017-11-22T13:23:18.728Z,100351.11
2017-11-22T13:25:45.198Z,100353.69
2017-11-22T13:28:11.444Z,100348.03
2017-11-22T13:30:37.958Z,100351.65
2017-11-22T13:33:04.155Z,100349.55
2017-11-22T13:35:30.434Z,100346.53
2017-11-22T13:37:56.849Z,100343.03
2017-11-22T13:40:23.099Z,100329.06
2017-11-22T13:42:49.382Z,100335.96
2017-11-22T13:45:15.606Z,100332.36
2017-11-22T13:47:41.817Z,100330.61
2017-11-22T13:50:08.085Z,100323.66
2017-11-22T13:52:34.312Z,100331.58
2017-11-22T13:55:00.535Z,100336.02
2017-11-22T13:57:26.895Z,100329.50
2017-11-22T13:59:53.104Z,100339.19
2017-11-22T14:02:19.554Z,100336.91
2017-11-22T14:04:46.042Z,100328.62
2017-11-22T14:07:12.652Z,100334.77
2017-11-22T14:09:38.884Z,100331.74
2017-11-22T14:12:05.144Z,100335.24
2017-11-22T14:14:31.346Z,100331.25
2017-11-22T14:16:57.578Z,100331.16
2017-11-22T14:19:23.854Z,100334.70
2017-11-22T14:21:50.089Z,100329.89
2017-11-22T14:24:16.269Z,100334.21
2017-11-22T14:26:42.802Z,100332.42
2017-11-22T14:29:09.101Z,100335.48
2017-11-22T14:31:35.301Z,100335.53
2017-11-22T14:34:01.532Z,100323.70
2017-11-22T14:36:27.710Z,100332.95
2017-11-22T14:38:54.211Z,100334.36
2017-11-22T14:41:20.436Z,100331.30
2017-11-22T14:43:46.906Z,100340.20
2017-11-22T14:46:13.203Z,100331.93
2017-11-22T14:48:39.414Z,100329.31
2017-11-22T14:51:05.633Z,100320.45
2017-11-22T14:53:31.889Z,100320.06
2017-11-22T14:55:58.360Z,100318.36
2017-11-22T14:58:24.674Z,100318.84
2017-11-22T15:00:51.349Z,100315.78
2017-11-22T15:03:17.596Z,100308.81
2017-11-22T15:05:43.846Z,100314.07
2017-11-22T15:08:10.122Z,100309.06
2017-11-22T15:10:36.365Z,100323.56
2017-11-22T15:13:02.862Z,100322.20
2017-11-22T15:15:29.399Z,100320.94
2017-11-22T15:17:55.859Z,100317.05
2017-11-22T15:20:22.088Z,100308.67
2017-11-22T15:22:54.456Z,100304.00
2017-11-22T15:25:20.681Z,100309.25
2017-11-22T15:27:47.871Z,100302.06
2017-11-22T15:30:14.210Z,100302.73
2017-11-22T15:32:40.426Z,100316.25
2017-11-22T15:35:06.662Z,100322.05
2017-11-22T15:37:32.931Z,100322.30
2017-11-22T15:39:59.175Z,100330.67
2017-11-22T15:42:25.442Z,100330.77
2017-11-22T15:44:51.931Z,100334.38
2017-11-22T15:47:18.386Z,100333.50
2017-11-22T15:49:44.846Z,100324.34
2017-11-22T15:52:11.169Z,100310.84
2017-11-22T15:54:37.384Z,100310.50
2017-11-22T15:57:03.800Z,100316.14
2017-11-22T15:59:30.086Z,100308.30
2017-11-22T16:01:56.276Z,100311.81
2017-11-22T16:04:22.726Z,100317.61
2017-11-22T16:06:49.181Z,100311.13
2017-11-22T16:09:15.399Z,100312.50
2017-11-22T16:11:41.784Z,100314.73
2017-11-22T16:14:08.159Z,100312.58
2017-11-22T16:16:34.472Z,100323.55
2017-11-22T16:19:00.674Z,100308.64
2017-11-22T16:21:27.341Z,100319.55
2017-11-22T16:23:53.532Z,100318.23
2017-11-22T16:26:19.987Z,100308.64
2017-11-22T16:28:46.250Z,100311.71
2017-11-22T16:31:12.462Z,100308.16
2017-11-22T16:33:38.650Z,100308.20
2017-11-22T16:36:04.916Z,100311.31
2017-11-22T16:38:31.104Z,100310.49
2017-11-22T16:40:57.328Z,100309.66
2017-11-22T16:43:23.910Z,100312.59
2017-11-22T16:45:50.098Z,100312.73
2017-11-22T16:48:16.286Z,100306.99
2017-11-22T16:50:42.633Z,100305.72
2017-11-22T16:53:08.825Z,100301.30
2017-11-22T16:55:35.041Z,100307.87
2017-11-22T16:58:01.370Z,100314.87
2017-11-22T17:00:27.794Z,100313.08
2017-11-22T17:02:53.998Z,100312.20
2017-11-22T17:05:20.326Z,100309.53
2017-11-22T17:07:46.545Z,100297.70
2017-11-22T17:10:12.754Z,100306.90
2017-11-22T17:12:39.153Z,100303.14
2017-11-22T17:15:05.352Z,100297.41
2017-11-22T17:17:31.557Z,100293.47
2017-11-22T17:19:57.823Z,100284.70
2017-11-22T17:22:24.015Z,100286.03
2017-11-22T17:24:50.221Z,100292.98
2017-11-22T17:27:16.483Z,100282.08
2017-11-22T17:29:42.704Z,100293.56
2017-11-22T17:32:08.925Z,100289.58
2017-11-22T17:34:35.277Z,100283.10
2017-11-22T17:37:01.501Z,100290.06
2017-11-22T17:39:27.697Z,100286.56
2017-11-22T17:41:54.041Z,100289.14
2017-11-22T17:44:20.270Z,100293.56
2017-11-22T17:46:46.598Z,100286.50
2017-11-22T17:49:12.933Z,100291.63
2017-11-22T17:51:39.176Z,100290.30
2017-11-22T17:54:05.376Z,100278.14
2017-11-22T17:56:31.624Z,100284.70
2017-11-22T17:58:57.835Z,100282.97
2017-11-22T18:01:24.038Z,100277.31
2017-11-22T18:03:50.374Z,100274.59
2017-11-22T18:06:16.631Z,100276.89
2017-11-22T18:08:42.846Z,100279.03
2017-11-22T18:11:09.188Z,100274.31
2017-11-22T18:13:35.420Z,100279.03
2017-11-22T18:16:01.838Z,100276.48
2017-11-22T18:18:28.394Z,100274.59
2017-11-22T18:20:54.858Z,100268.41
2017-11-22T18:23:21.195Z,100260.58
2017-11-22T18:25:47.547Z,100250.42
2017-11-22T18:28:13.742Z,100253.92
2017-11-22T18:30:39.921Z,100251.38
2017-11-22T18:33:06.271Z,100246.19
2017-11-22T18:35:32.482Z,100248.81
2017-11-22T18:37:58.673Z,100246.63
2017-11-22T18:40:24.940Z,100244.87
2017-11-22T18:42:51.142Z,100242.23
2017-11-22T18:45:17.349Z,100235.23
2017-11-22T18:47:43.693Z,100233.92
2017-11-22T18:50:09.925Z,100232.56
2017-11-22T18:52:36.181Z,100227.45
2017-11-22T18:55:02.830Z,100229.64
2017-11-22T18:57:29.049Z,100227.11
2017-11-22T18:59:55.268Z,100222.70
2017-11-22T19:02:21.551Z,100221.38
2017-11-22T19:04:47.982Z,100217.00
2017-11-22T19:07:14.214Z,100214.31
2017-11-22T19:09:40.569Z,100208.53
2017-11-22T19:12:06.773Z,100205.80
2017-11-22T19:14:33.010Z,100205.89
2017-11-22T19:16:59.419Z,100200.45
2017-11-22T19:19:25.628Z,100200.50
2017-11-22T19:21:51.835Z,100189.11
2017-11-22T19:24:18.446Z,100192.61
2017-11-22T19:26:44.672Z,100173.75
2017-11-22T19:29:11.077Z,100167.27
2017-11-22T19:31:37.352Z,100169.95
2017-11-22T19:34:03.809Z,100164.64
2017-11-22T19:36:30.235Z,100164.98
2017-11-22T19:38:56.737Z,100165.75
2017-11-22T19:41:22.934Z,100166.34
2017-11-22T19:43:49.120Z,100165.42
2017-11-22T19:46:15.473Z,100153.16
2017-11-22T19:48:41.961Z,100160.66
2017-11-22T19:51:08.146Z,100162.36
2017-11-22T19:53:34.472Z,100163.72
2017-11-22T19:56:00.666Z,100166.20
2017-11-22T19:58:26.965Z,100161.30
2017-11-22T20:00:53.451Z,100156.99
2017-11-22T20:03:19.907Z,100150.16
2017-11-22T20:05:46.159Z,100144.73
2017-11-22T20:08:24.953Z,100141.82
2017-11-22T20:10:51.255Z,100141.72
2017-11-22T20:13:17.530Z,100139.88
2017-11-22T20:15:43.862Z,100134.28
2017-11-22T20:18:10.093Z,100141.06
2017-11-22T20:20:37.356Z,100135.80
2017-11-22T20:23:04.874Z,100139.48
2017-11-22T20:25:31.111Z,100142.11
2017-11-22T20:27:57.456Z,100137.45
2017-11-22T20:30:23.834Z,100135.05
2017-11-22T20:32:50.061Z,100138.70
2017-11-22T20:35:16.283Z,100135.01
2017-11-22T20:37:42.661Z,100134.19
2017-11-22T20:40:08.973Z,100141.93
2017-11-22T20:42:36.126Z,100149.97
2017-11-22T20:45:02.415Z,100151.34
2017-11-22T20:47:28.750Z,100156.97
2017-11-22T20:49:55.038Z,100149.86
2017-11-22T20:52:21.438Z,100150.53
2017-11-22T20:54:47.673Z,100155.19
2017-11-22T20:57:13.944Z,100149.05
2017-11-22T20:59:40.508Z,100147.70
2017-11-22T21:02:07.031Z,100141.12
2017-11-22T21:04:33.283Z,100146.44
2017-11-22T21:06:59.648Z,100149.55
2017-11-22T21:09:25.879Z,100149.94
2017-11-22T21:11:52.144Z,100158.20
2017-11-22T21:14:18.690Z,100152.94
2017-11-22T21:16:45.101Z,100145.17
2017-11-22T21:19:12.302Z,100147.74
2017-11-22T21:21:38.829Z,100147.69
2017-11-22T21:24:05.062Z,100141.19
2017-11-22T21:29:03.211Z,100138.11
2017-11-22T21:31:29.447Z,100133.69
2017-11-22T21:33:56.547Z,100131.05
2017-11-22T21:36:23.079Z,100131.11
2017-11-22T21:38:49.354Z,100128.97
2017-11-22T21:41:15.714Z,100130.24
2017-11-22T21:43:42.062Z,100124.50
2017-11-22T21:46:08.342Z,100120.98
2017-11-22T21:48:34.950Z,100114.03
2017-11-22T21:51:01.360Z,100117.20
2017-11-22T21:53:27.642Z,100122.02
2017-11-22T21:55:54.189Z,100133.23
2017-11-22T21:58:20.522Z,100129.30
2017-11-22T22:00:46.796Z,100130.17
2017-11-22T22:03:13.075Z,100120.56
2017-11-22T22:05:39.470Z,100126.34
2017-11-22T22:08:05.747Z,100126.73
2017-11-22T22:10:32.080Z,100119.68
2017-11-22T22:12:58.410Z,100114.56
2017-11-22T22:15:24.767Z,100114.64
2017-11-22T22:17:51.078Z,100118.09
2017-11-22T22:20:17.692Z,100108.05
2017-11-22T22:22:43.899Z,100113.59
2017-11-22T22:25:10.123Z,100112.27
2017-11-22T22:27:36.453Z,100103.86
2017-11-22T22:30:02.828Z,100096.47
2017-11-22T22:32:29.041Z,100105.98
2017-11-22T22:34:55.292Z,100108.52
2017-11-22T22:37:21.718Z,100105.49
2017-11-22T22:39:48.170Z,100104.95
2017-11-22T22:42:14.439Z,100105.83
2017-11-22T22:44:40.636Z,100102.77
2017-11-22T22:47:06.834Z,100102.31
2017-11-22T22:49:33.104Z,100098.80
2017-11-22T22:51:59.352Z,100093.98
2017-11-22T22:54:25.522Z,100086.05
2017-11-22T22:56:51.853Z,100080.41
2017-11-22T22:59:18.051Z,100077.23
2017-11-22T23:01:44.258Z,100081.66
2017-11-22T23:04:10.614Z,100073.78
2017-11-22T23:06:36.819Z,100074.67
2017-11-22T23:09:03.393Z,100079.50
2017-11-22T23:11:29.679Z,100077.34
2017-11-22T23:13:55.977Z,100070.36
2017-11-22T23:16:22.181Z,100078.21
2017-11-22T23:18:48.457Z,100069.36
2017-11-22T23:21:14.778Z,100060.59
2017-11-22T23:23:41.029Z,100063.18
2017-11-22T23:26:07.357Z,100054.27
2017-11-22T23:28:33.677Z,100054.31
2017-11-22T23:30:59.969Z,100050.72
2017-11-22T23:33:26.172Z,100046.87
2017-11-22T23:35:52.531Z,100043.82
2017-11-22T23:38:18.768Z,100035.48
2017-11-22T23:40:45.007Z,100044.63
2017-11-22T23:43:11.399Z,100042.94
2017-11-22T23:45:37.602Z,100043.76
2017-11-22T23:48:03.828Z,100050.81
2017-11-22T23:50:30.091Z,100042.94
2017-11-22T23:52:56.289Z,100036.84
2017-11-22T23:55:22.501Z,100039.05
2017-11-22T23:57:48.884Z,100046.10
